Terminal Aerodrome Forecast
Issued by NWS Wilmington, OH

Current Version | Previous Version | Graphics & Text | Print | Product List | Glossary On
Versions: 1 2 3 4 5 6 7 8 9 10 11 12 13 14 15 16 17 18 19 20 21 22 23 24 25 26 27 28
000
FTUS41 KILN 251500 AAC
TAFDAY
TAF AMD
KDAY 251537Z 2516/2612 13005KT 3SM -RASN BR OVC040
      TEMPO 2516/2517 2SM -SN BR OVC030
     FM251700 08008KT 5SM -RA BR OVC015
      TEMPO 2517/2521 2SM -SNRA OVC010
     FM252100 05010KT 1/2SM SN OVC006
     FM260100 04015G23KT 3/4SM -SN OVC006
     FM260300 02015G23KT 1SM -SN SCT015 OVC022
     FM260600 01014G22KT 3SM -SN OVC022
     FM261000 36013G21KT P6SM OVC022=

USA.gov is the U.S. government's official web portal to all federal, state and local government web resources and services.